sensor_id;sensor_type;location;lat;lon;timestamp;P1;durP1;ratioP1;P2;durP2;ratioP2
15905;SDS011;8051;50.820;4.884;2022-08-01T00:01:49;26.30;;;25.00;;
15905;SDS011;8051;50.820;4.884;2022-08-01T00:04:16;24.73;;;23.50;;
15905;SDS011;8051;50.820;4.884;2022-08-01T00:06:42;24.90;;;23.40;;
15905;SDS011;8051;50.820;4.884;2022-08-01T00:09:09;24.33;;;23.10;;
15905;SDS011;8051;50.820;4.884;2022-08-01T00:11:36;23.73;;;22.57;;
15905;SDS011;8051;50.820;4.884;2022-08-01T00:14:03;23.87;;;22.67;;
15905;SDS011;8051;50.820;4.884;2022-08-01T00:16:30;27.57;;;26.00;;
15905;SDS011;8051;50.820;4.884;2022-08-01T00:18:58;24.17;;;23.07;;
15905;SDS011;8051;50.820;4.884;2022-08-01T00:21:25;23.77;;;22.67;;
15905;SDS011;8051;50.820;4.884;2022-08-01T00:23:52;24.67;;;23.13;;
15905;SDS011;8051;50.820;4.884;2022-08-01T00:26:19;24.77;;;23.23;;
15905;SDS011;8051;50.820;4.884;2022-08-01T00:28:46;24.93;;;23.63;;
15905;SDS011;8051;50.820;4.884;2022-08-01T00:31:12;25.93;;;24.53;;
15905;SDS011;8051;50.820;4.884;2022-08-01T00:33:39;25.17;;;23.77;;
15905;SDS011;8051;50.820;4.884;2022-08-01T00:36:08;24.90;;;23.70;;
15905;SDS011;8051;50.820;4.884;2022-08-01T00:38:35;25.67;;;24.17;;
15905;SDS011;8051;50.820;4.884;2022-08-01T00:41:02;26.30;;;24.57;;
15905;SDS011;8051;50.820;4.884;2022-08-01T00:43:28;24.57;;;23.37;;
15905;SDS011;8051;50.820;4.884;2022-08-01T00:45:55;24.67;;;23.30;;
15905;SDS011;8051;50.820;4.884;2022-08-01T00:48:22;25.57;;;24.20;;
15905;SDS011;8051;50.820;4.884;2022-08-01T00:50:49;27.13;;;25.23;;
15905;SDS011;8051;50.820;4.884;2022-08-01T00:53:17;25.03;;;23.70;;
15905;SDS011;8051;50.820;4.884;2022-08-01T00:55:44;25.60;;;24.30;;
15905;SDS011;8051;50.820;4.884;2022-08-01T00:58:12;25.20;;;23.97;;
15905;SDS011;8051;50.820;4.884;2022-08-01T01:00:40;26.43;;;24.93;;
15905;SDS011;8051;50.820;4.884;2022-08-01T01:03:06;26.33;;;24.93;;
15905;SDS011;8051;50.820;4.884;2022-08-01T01:05:35;27.47;;;25.77;;
15905;SDS011;8051;50.820;4.884;2022-08-01T01:08:07;27.63;;;26.23;;
15905;SDS011;8051;50.820;4.884;2022-08-01T01:10:43;27.40;;;26.00;;
15905;SDS011;8051;50.820;4.884;2022-08-01T01:13:16;28.50;;;26.27;;
15905;SDS011;8051;50.820;4.884;2022-08-01T01:15:47;29.00;;;27.47;;
15905;SDS011;8051;50.820;4.884;2022-08-01T01:18:22;29.70;;;27.90;;
15905;SDS011;8051;50.820;4.884;2022-08-01T01:20:51;29.07;;;27.47;;
15905;SDS011;8051;50.820;4.884;2022-08-01T01:23:32;29.40;;;27.53;;
15905;SDS011;8051;50.820;4.884;2022-08-01T01:26:20;31.57;;;29.57;;
15905;SDS011;8051;50.820;4.884;2022-08-01T01:29:03;30.97;;;29.00;;
15905;SDS011;8051;50.820;4.884;2022-08-01T01:31:33;30.03;;;28.17;;
15905;SDS011;8051;50.820;4.884;2022-08-01T01:34:06;29.33;;;27.70;;
15905;SDS011;8051;50.820;4.884;2022-08-01T01:36:35;30.00;;;28.10;;
15905;SDS011;8051;50.820;4.884;2022-08-01T01:39:04;30.83;;;29.13;;
15905;SDS011;8051;50.820;4.884;2022-08-01T01:41:32;29.80;;;28.17;;
15905;SDS011;8051;50.820;4.884;2022-08-01T01:44:00;31.20;;;29.07;;
15905;SDS011;8051;50.820;4.884;2022-08-01T01:46:30;30.33;;;28.57;;
15905;SDS011;8051;50.820;4.884;2022-08-01T01:48:58;29.60;;;27.73;;
15905;SDS011;8051;50.820;4.884;2022-08-01T01:51:27;29.53;;;27.73;;
15905;SDS011;8051;50.820;4.884;2022-08-01T01:53:55;29.20;;;27.47;;
15905;SDS011;8051;50.820;4.884;2022-08-01T01:56:23;28.47;;;26.87;;
15905;SDS011;8051;50.820;4.884;2022-08-01T01:58:54;29.27;;;27.47;;
15905;SDS011;8051;50.820;4.884;2022-08-01T02:01:24;32.03;;;30.17;;
15905;SDS011;8051;50.820;4.884;2022-08-01T02:03:54;34.23;;;31.83;;
15905;SDS011;8051;50.820;4.884;2022-08-01T02:06:22;31.57;;;29.67;;
15905;SDS011;8051;50.820;4.884;2022-08-01T02:08:51;30.03;;;28.27;;
15905;SDS011;8051;50.820;4.884;2022-08-01T02:11:20;34.33;;;32.03;;
15905;SDS011;8051;50.820;4.884;2022-08-01T02:13:49;32.10;;;30.10;;
15905;SDS011;8051;50.820;4.884;2022-08-01T02:16:19;31.13;;;28.63;;
15905;SDS011;8051;50.820;4.884;2022-08-01T02:18:50;29.83;;;27.87;;
15905;SDS011;8051;50.820;4.884;2022-08-01T02:21:19;30.27;;;28.00;;
15905;SDS011;8051;50.820;4.884;2022-08-01T02:23:51;30.13;;;28.13;;
15905;SDS011;8051;50.820;4.884;2022-08-01T02:26:19;28.37;;;26.67;;
15905;SDS011;8051;50.820;4.884;2022-08-01T02:28:49;28.83;;;27.13;;
15905;SDS011;8051;50.820;4.884;2022-08-01T02:31:22;30.73;;;28.77;;
15905;SDS011;8051;50.820;4.884;2022-08-01T02:33:52;29.23;;;27.63;;
15905;SDS011;8051;50.820;4.884;2022-08-01T02:36:23;30.40;;;28.40;;
15905;SDS011;8051;50.820;4.884;2022-08-01T02:38:54;28.77;;;27.17;;
15905;SDS011;8051;50.820;4.884;2022-08-01T02:41:22;29.43;;;27.73;;
15905;SDS011;8051;50.820;4.884;2022-08-01T02:43:52;30.33;;;28.40;;
15905;SDS011;8051;50.820;4.884;2022-08-01T02:46:23;31.33;;;29.63;;
15905;SDS011;8051;50.820;4.884;2022-08-01T02:48:55;30.47;;;27.97;;
15905;SDS011;8051;50.820;4.884;2022-08-01T02:51:25;30.53;;;28.73;;
15905;SDS011;8051;50.820;4.884;2022-08-01T02:53:53;31.20;;;29.30;;
15905;SDS011;8051;50.820;4.884;2022-08-01T02:56:22;29.67;;;27.90;;
15905;SDS011;8051;50.820;4.884;2022-08-01T02:58:59;32.17;;;30.47;;
15905;SDS011;8051;50.820;4.884;2022-08-01T03:01:28;29.40;;;27.70;;
15905;SDS011;8051;50.820;4.884;2022-08-01T03:03:56;30.53;;;28.63;;
15905;SDS011;8051;50.820;4.884;2022-08-01T03:06:23;31.27;;;28.87;;
15905;SDS011;8051;50.820;4.884;2022-08-01T03:08:51;35.83;;;33.93;;
15905;SDS011;8051;50.820;4.884;2022-08-01T03:11:20;31.07;;;28.37;;
15905;SDS011;8051;50.820;4.884;2022-08-01T03:13:47;32.80;;;30.80;;
15905;SDS011;8051;50.820;4.884;2022-08-01T03:16:16;30.93;;;29.00;;
15905;SDS011;8051;50.820;4.884;2022-08-01T03:18:43;29.93;;;28.17;;
15905;SDS011;8051;50.820;4.884;2022-08-01T03:21:13;28.83;;;26.83;;
15905;SDS011;8051;50.820;4.884;2022-08-01T03:23:41;30.63;;;28.07;;
15905;SDS011;8051;50.820;4.884;2022-08-01T03:26:11;29.33;;;27.30;;
15905;SDS011;8051;50.820;4.884;2022-08-01T03:28:39;29.13;;;27.43;;
15905;SDS011;8051;50.820;4.884;2022-08-01T03:31:07;29.03;;;27.33;;
15905;SDS011;8051;50.820;4.884;2022-08-01T03:33:35;29.93;;;27.70;;
15905;SDS011;8051;50.820;4.884;2022-08-01T03:36:02;30.70;;;28.37;;
15905;SDS011;8051;50.820;4.884;2022-08-01T03:38:36;30.67;;;28.97;;
15905;SDS011;8051;50.820;4.884;2022-08-01T03:41:08;30.57;;;28.87;;
15905;SDS011;8051;50.820;4.884;2022-08-01T03:43:40;31.03;;;29.20;;
15905;SDS011;8051;50.820;4.884;2022-08-01T03:46:13;33.07;;;30.77;;
15905;SDS011;8051;50.820;4.884;2022-08-01T03:48:46;31.37;;;29.47;;
15905;SDS011;8051;50.820;4.884;2022-08-01T03:51:14;31.67;;;29.77;;
15905;SDS011;8051;50.820;4.884;2022-08-01T03:53:44;32.33;;;30.40;;
15905;SDS011;8051;50.820;4.884;2022-08-01T03:56:13;37.43;;;34.87;;
15905;SDS011;8051;50.820;4.884;2022-08-01T03:58:44;40.97;;;36.97;;
15905;SDS011;8051;50.820;4.884;2022-08-01T04:01:12;39.50;;;37.07;;
15905;SDS011;8051;50.820;4.884;2022-08-01T04:03:40;43.03;;;40.03;;
15905;SDS011;8051;50.820;4.884;2022-08-01T04:06:07;50.60;;;47.40;;
15905;SDS011;8051;50.820;4.884;2022-08-01T04:08:35;44.30;;;41.70;;
15905;SDS011;8051;50.820;4.884;2022-08-01T04:11:04;50.83;;;47.73;;
15905;SDS011;8051;50.820;4.884;2022-08-01T04:13:32;53.33;;;49.63;;
15905;SDS011;8051;50.820;4.884;2022-08-01T04:15:59;58.83;;;55.47;;
15905;SDS011;8051;50.820;4.884;2022-08-01T04:18:26;57.30;;;53.87;;
15905;SDS011;8051;50.820;4.884;2022-08-01T04:20:53;70.60;;;66.20;;
15905;SDS011;8051;50.820;4.884;2022-08-01T04:23:20;72.60;;;68.63;;
15905;SDS011;8051;50.820;4.884;2022-08-01T04:25:50;61.57;;;57.80;;
15905;SDS011;8051;50.820;4.884;2022-08-01T04:28:20;71.77;;;67.50;;
15905;SDS011;8051;50.820;4.884;2022-08-01T04:30:48;77.93;;;73.33;;
15905;SDS011;8051;50.820;4.884;2022-08-01T04:33:18;85.93;;;80.73;;
15905;SDS011;8051;50.820;4.884;2022-08-01T04:35:47;54.67;;;50.87;;
15905;SDS011;8051;50.820;4.884;2022-08-01T04:38:17;40.03;;;37.13;;
15905;SDS011;8051;50.820;4.884;2022-08-01T04:40:47;46.37;;;40.93;;
15905;SDS011;8051;50.820;4.884;2022-08-01T04:43:16;48.67;;;44.27;;
15905;SDS011;8051;50.820;4.884;2022-08-01T04:45:45;53.93;;;49.30;;
15905;SDS011;8051;50.820;4.884;2022-08-01T04:48:13;85.43;;;79.73;;
15905;SDS011;8051;50.820;4.884;2022-08-01T04:50:44;88.57;;;82.80;;
15905;SDS011;8051;50.820;4.884;2022-08-01T04:53:12;123.03;;;115.00;;
15905;SDS011;8051;50.820;4.884;2022-08-01T04:55:41;184.23;;;174.43;;
15905;SDS011;8051;50.820;4.884;2022-08-01T04:58:08;128.33;;;118.67;;
15905;SDS011;8051;50.820;4.884;2022-08-01T05:00:36;124.80;;;117.47;;
15905;SDS011;8051;50.820;4.884;2022-08-01T05:03:04;122.43;;;114.37;;
15905;SDS011;8051;50.820;4.884;2022-08-01T05:05:31;109.87;;;102.20;;
15905;SDS011;8051;50.820;4.884;2022-08-01T05:07:58;99.13;;;92.03;;
15905;SDS011;8051;50.820;4.884;2022-08-01T05:10:25;93.73;;;86.33;;
15905;SDS011;8051;50.820;4.884;2022-08-01T05:12:53;91.77;;;84.93;;
15905;SDS011;8051;50.820;4.884;2022-08-01T05:15:20;88.77;;;82.20;;
15905;SDS011;8051;50.820;4.884;2022-08-01T05:17:47;91.40;;;84.67;;
15905;SDS011;8051;50.820;4.884;2022-08-01T05:20:15;92.13;;;85.37;;
15905;SDS011;8051;50.820;4.884;2022-08-01T05:22:42;94.63;;;88.07;;
15905;SDS011;8051;50.820;4.884;2022-08-01T05:25:09;93.10;;;86.70;;
15905;SDS011;8051;50.820;4.884;2022-08-01T05:27:36;89.00;;;82.43;;
15905;SDS011;8051;50.820;4.884;2022-08-01T05:30:05;92.77;;;86.47;;
15905;SDS011;8051;50.820;4.884;2022-08-01T05:32:33;94.57;;;87.83;;
15905;SDS011;8051;50.820;4.884;2022-08-01T05:35:00;98.17;;;91.63;;
15905;SDS011;8051;50.820;4.884;2022-08-01T05:37:28;102.03;;;95.00;;
15905;SDS011;8051;50.820;4.884;2022-08-01T05:39:55;102.20;;;94.93;;
15905;SDS011;8051;50.820;4.884;2022-08-01T05:42:22;107.57;;;100.10;;
15905;SDS011;8051;50.820;4.884;2022-08-01T05:44:49;106.10;;;98.77;;
15905;SDS011;8051;50.820;4.884;2022-08-01T05:47:16;110.07;;;101.73;;
15905;SDS011;8051;50.820;4.884;2022-08-01T05:49:43;127.20;;;119.30;;
15905;SDS011;8051;50.820;4.884;2022-08-01T05:52:11;146.20;;;137.77;;
15905;SDS011;8051;50.820;4.884;2022-08-01T05:54:39;161.57;;;152.93;;
15905;SDS011;8051;50.820;4.884;2022-08-01T05:57:06;163.00;;;154.33;;
15905;SDS011;8051;50.820;4.884;2022-08-01T05:59:33;190.83;;;180.30;;
15905;SDS011;8051;50.820;4.884;2022-08-01T06:02:00;255.00;;;241.83;;
15905;SDS011;8051;50.820;4.884;2022-08-01T06:04:27;281.63;;;267.80;;
15905;SDS011;8051;50.820;4.884;2022-08-01T06:06:54;299.33;;;284.30;;
15905;SDS011;8051;50.820;4.884;2022-08-01T06:09:21;279.33;;;265.37;;
15905;SDS011;8051;50.820;4.884;2022-08-01T06:11:49;240.93;;;229.23;;
15905;SDS011;8051;50.820;4.884;2022-08-01T06:14:16;235.80;;;223.77;;
15905;SDS011;8051;50.820;4.884;2022-08-01T06:16:43;263.70;;;250.10;;
15905;SDS011;8051;50.820;4.884;2022-08-01T06:19:10;323.30;;;307.73;;
15905;SDS011;8051;50.820;4.884;2022-08-01T06:21:36;304.97;;;289.40;;
15905;SDS011;8051;50.820;4.884;2022-08-01T06:24:04;231.87;;;220.03;;
15905;SDS011;8051;50.820;4.884;2022-08-01T06:26:31;209.77;;;199.03;;
15905;SDS011;8051;50.820;4.884;2022-08-01T06:28:59;182.70;;;173.53;;
15905;SDS011;8051;50.820;4.884;2022-08-01T06:31:26;185.70;;;175.93;;
15905;SDS011;8051;50.820;4.884;2022-08-01T06:33:53;175.70;;;166.23;;
15905;SDS011;8051;50.820;4.884;2022-08-01T06:36:22;121.27;;;114.27;;
15905;SDS011;8051;50.820;4.884;2022-08-01T06:38:48;72.47;;;67.77;;
15905;SDS011;8051;50.820;4.884;2022-08-01T06:41:15;49.50;;;44.87;;
15905;SDS011;8051;50.820;4.884;2022-08-01T06:43:42;43.60;;;40.13;;
15905;SDS011;8051;50.820;4.884;2022-08-01T06:46:10;44.23;;;40.17;;
15905;SDS011;8051;50.820;4.884;2022-08-01T06:48:37;38.97;;;35.73;;
15905;SDS011;8051;50.820;4.884;2022-08-01T06:51:05;38.50;;;35.57;;
15905;SDS011;8051;50.820;4.884;2022-08-01T06:53:38;39.93;;;36.57;;
15905;SDS011;8051;50.820;4.884;2022-08-01T06:56:05;40.10;;;36.67;;
15905;SDS011;8051;50.820;4.884;2022-08-01T06:58:33;46.90;;;43.63;;
15905;SDS011;8051;50.820;4.884;2022-08-01T07:01:00;45.80;;;42.30;;
15905;SDS011;8051;50.820;4.884;2022-08-01T07:03:32;43.00;;;39.70;;
15905;SDS011;8051;50.820;4.884;2022-08-01T07:05:59;46.17;;;42.87;;
15905;SDS011;8051;50.820;4.884;2022-08-01T07:08:25;39.57;;;36.47;;
15905;SDS011;8051;50.820;4.884;2022-08-01T07:10:52;36.60;;;33.80;;
15905;SDS011;8051;50.820;4.884;2022-08-01T07:13:19;37.20;;;34.03;;
15905;SDS011;8051;50.820;4.884;2022-08-01T07:15:50;29.87;;;27.67;;
15905;SDS011;8051;50.820;4.884;2022-08-01T07:18:17;32.87;;;30.33;;
15905;SDS011;8051;50.820;4.884;2022-08-01T07:20:45;31.90;;;29.43;;
15905;SDS011;8051;50.820;4.884;2022-08-01T07:23:12;30.00;;;27.70;;
15905;SDS011;8051;50.820;4.884;2022-08-01T07:25:39;32.27;;;29.73;;
15905;SDS011;8051;50.820;4.884;2022-08-01T07:28:06;28.47;;;26.47;;
15905;SDS011;8051;50.820;4.884;2022-08-01T07:30:33;30.37;;;27.97;;
15905;SDS011;8051;50.820;4.884;2022-08-01T07:33:00;30.03;;;27.93;;
15905;SDS011;8051;50.820;4.884;2022-08-01T07:35:28;29.63;;;27.50;;
15905;SDS011;8051;50.820;4.884;2022-08-01T07:37:56;29.07;;;26.83;;
15905;SDS011;8051;50.820;4.884;2022-08-01T07:40:23;31.10;;;28.40;;
15905;SDS011;8051;50.820;4.884;2022-08-01T07:42:50;27.97;;;25.57;;
15905;SDS011;8051;50.820;4.884;2022-08-01T07:45:16;27.83;;;25.70;;
15905;SDS011;8051;50.820;4.884;2022-08-01T07:47:43;24.10;;;22.40;;
15905;SDS011;8051;50.820;4.884;2022-08-01T07:50:11;24.07;;;22.40;;
15905;SDS011;8051;50.820;4.884;2022-08-01T07:52:38;24.37;;;22.37;;
15905;SDS011;8051;50.820;4.884;2022-08-01T07:55:08;26.10;;;23.67;;
15905;SDS011;8051;50.820;4.884;2022-08-01T07:57:35;23.47;;;21.87;;
15905;SDS011;8051;50.820;4.884;2022-08-01T08:00:03;25.50;;;23.60;;
15905;SDS011;8051;50.820;4.884;2022-08-01T08:02:33;27.60;;;25.67;;
15905;SDS011;8051;50.820;4.884;2022-08-01T08:05:00;26.30;;;24.53;;
15905;SDS011;8051;50.820;4.884;2022-08-01T08:07:27;23.53;;;21.93;;
15905;SDS011;8051;50.820;4.884;2022-08-01T08:09:53;21.10;;;19.27;;
15905;SDS011;8051;50.820;4.884;2022-08-01T08:12:22;16.87;;;15.77;;
15905;SDS011;8051;50.820;4.884;2022-08-01T08:14:48;21.53;;;20.13;;
15905;SDS011;8051;50.820;4.884;2022-08-01T08:17:15;22.13;;;20.73;;
15905;SDS011;8051;50.820;4.884;2022-08-01T08:19:42;20.30;;;19.07;;
15905;SDS011;8051;50.820;4.884;2022-08-01T08:22:09;20.53;;;19.13;;
15905;SDS011;8051;50.820;4.884;2022-08-01T08:24:36;20.87;;;19.57;;
15905;SDS011;8051;50.820;4.884;2022-08-01T08:27:04;23.53;;;21.73;;
15905;SDS011;8051;50.820;4.884;2022-08-01T08:29:34;21.33;;;20.13;;
15905;SDS011;8051;50.820;4.884;2022-08-01T08:32:01;19.47;;;18.03;;
15905;SDS011;8051;50.820;4.884;2022-08-01T08:34:28;20.13;;;18.47;;
15905;SDS011;8051;50.820;4.884;2022-08-01T08:36:55;21.63;;;19.80;;
15905;SDS011;8051;50.820;4.884;2022-08-01T08:39:23;27.10;;;25.50;;
15905;SDS011;8051;50.820;4.884;2022-08-01T08:41:50;22.60;;;21.10;;
15905;SDS011;8051;50.820;4.884;2022-08-01T08:44:17;26.47;;;24.53;;
15905;SDS011;8051;50.820;4.884;2022-08-01T08:46:47;25.67;;;23.83;;
15905;SDS011;8051;50.820;4.884;2022-08-01T08:49:16;25.00;;;23.47;;
15905;SDS011;8051;50.820;4.884;2022-08-01T08:51:46;21.33;;;19.70;;
15905;SDS011;8051;50.820;4.884;2022-08-01T08:54:14;23.20;;;21.47;;
15905;SDS011;8051;50.820;4.884;2022-08-01T08:56:42;22.03;;;20.30;;
15905;SDS011;8051;50.820;4.884;2022-08-01T08:59:10;19.73;;;18.43;;
15905;SDS011;8051;50.820;4.884;2022-08-01T09:01:39;16.30;;;15.23;;
15905;SDS011;8051;50.820;4.884;2022-08-01T09:04:07;14.97;;;13.93;;
15905;SDS011;8051;50.820;4.884;2022-08-01T09:06:34;16.47;;;15.37;;
15905;SDS011;8051;50.820;4.884;2022-08-01T09:09:01;17.00;;;15.77;;
15905;SDS011;8051;50.820;4.884;2022-08-01T09:11:29;20.07;;;18.23;;
15905;SDS011;8051;50.820;4.884;2022-08-01T09:14:04;18.73;;;17.37;;
15905;SDS011;8051;50.820;4.884;2022-08-01T09:16:33;18.87;;;17.70;;
15905;SDS011;8051;50.820;4.884;2022-08-01T09:19:12;19.23;;;18.03;;
15905;SDS011;8051;50.820;4.884;2022-08-01T09:21:40;18.60;;;17.70;;
15905;SDS011;8051;50.820;4.884;2022-08-01T09:24:22;16.27;;;15.20;;
15905;SDS011;8051;50.820;4.884;2022-08-01T09:26:48;16.27;;;15.47;;
15905;SDS011;8051;50.820;4.884;2022-08-01T09:29:20;19.60;;;18.70;;
15905;SDS011;8051;50.820;4.884;2022-08-01T09:31:48;15.03;;;14.30;;
15905;SDS011;8051;50.820;4.884;2022-08-01T09:34:23;17.43;;;16.63;;
15905;SDS011;8051;50.820;4.884;2022-08-01T09:36:52;17.93;;;17.10;;
15905;SDS011;8051;50.820;4.884;2022-08-01T09:39:22;18.23;;;17.33;;
15905;SDS011;8051;50.820;4.884;2022-08-01T09:41:51;17.10;;;16.07;;
15905;SDS011;8051;50.820;4.884;2022-08-01T09:44:18;13.00;;;11.93;;
15905;SDS011;8051;50.820;4.884;2022-08-01T09:46:50;12.53;;;11.93;;
15905;SDS011;8051;50.820;4.884;2022-08-01T09:49:28;14.03;;;13.33;;
15905;SDS011;8051;50.820;4.884;2022-08-01T09:51:57;18.30;;;17.30;;
15905;SDS011;8051;50.820;4.884;2022-08-01T09:54:29;17.27;;;16.47;;
15905;SDS011;8051;50.820;4.884;2022-08-01T09:57:07;17.23;;;16.13;;
15905;SDS011;8051;50.820;4.884;2022-08-01T09:59:35;10.50;;;10.00;;
15905;SDS011;8051;50.820;4.884;2022-08-01T10:02:05;8.87;;;8.47;;
15905;SDS011;8051;50.820;4.884;2022-08-01T10:04:34;11.73;;;11.00;;
15905;SDS011;8051;50.820;4.884;2022-08-01T10:07:05;13.40;;;12.70;;
15905;SDS011;8051;50.820;4.884;2022-08-01T10:09:34;14.23;;;13.53;;
15905;SDS011;8051;50.820;4.884;2022-08-01T10:12:02;16.33;;;15.53;;
15905;SDS011;8051;50.820;4.884;2022-08-01T10:14:30;16.17;;;15.37;;
15905;SDS011;8051;50.820;4.884;2022-08-01T10:16:58;12.10;;;11.40;;
15905;SDS011;8051;50.820;4.884;2022-08-01T10:19:26;9.83;;;9.33;;
15905;SDS011;8051;50.820;4.884;2022-08-01T10:21:55;10.60;;;10.00;;
15905;SDS011;8051;50.820;4.884;2022-08-01T10:24:24;9.80;;;9.30;;
15905;SDS011;8051;50.820;4.884;2022-08-01T10:26:54;9.40;;;9.00;;
15905;SDS011;8051;50.820;4.884;2022-08-01T10:29:27;10.27;;;9.73;;
15905;SDS011;8051;50.820;4.884;2022-08-01T10:31:56;9.63;;;8.83;;
15905;SDS011;8051;50.820;4.884;2022-08-01T10:34:23;10.00;;;9.50;;
15905;SDS011;8051;50.820;4.884;2022-08-01T10:36:50;9.07;;;8.57;;
15905;SDS011;8051;50.820;4.884;2022-08-01T10:39:19;10.77;;;10.17;;
15905;SDS011;8051;50.820;4.884;2022-08-01T10:41:46;10.13;;;9.63;;
15905;SDS011;8051;50.820;4.884;2022-08-01T10:44:13;9.50;;;9.00;;
15905;SDS011;8051;50.820;4.884;2022-08-01T10:46:49;8.70;;;8.20;;
15905;SDS011;8051;50.820;4.884;2022-08-01T10:49:20;11.53;;;10.93;;
15905;SDS011;8051;50.820;4.884;2022-08-01T10:51:50;11.20;;;10.60;;
15905;SDS011;8051;50.820;4.884;2022-08-01T10:54:16;10.33;;;9.83;;
15905;SDS011;8051;50.820;4.884;2022-08-01T10:56:45;10.50;;;9.80;;
15905;SDS011;8051;50.820;4.884;2022-08-01T10:59:14;10.60;;;10.00;;
15905;SDS011;8051;50.820;4.884;2022-08-01T11:01:55;9.27;;;8.77;;
15905;SDS011;8051;50.820;4.884;2022-08-01T11:04:31;8.27;;;7.87;;
15905;SDS011;8051;50.820;4.884;2022-08-01T11:07:04;9.53;;;8.87;;
15905;SDS011;8051;50.820;4.884;2022-08-01T11:09:40;11.50;;;11.00;;
15905;SDS011;8051;50.820;4.884;2022-08-01T11:12:09;9.90;;;9.40;;
15905;SDS011;8051;50.820;4.884;2022-08-01T11:17:37;10.93;;;10.20;;
15905;SDS011;8051;50.820;4.884;2022-08-01T11:20:09;9.50;;;8.90;;
15905;SDS011;8051;50.820;4.884;2022-08-01T11:31:41;8.47;;;7.83;;
15905;SDS011;8051;50.820;4.884;2022-08-01T11:34:08;8.73;;;8.27;;
15905;SDS011;8051;50.820;4.884;2022-08-01T11:36:35;7.43;;;6.93;;
15905;SDS011;8051;50.820;4.884;2022-08-01T11:39:11;8.30;;;7.90;;
15905;SDS011;8051;50.820;4.884;2022-08-01T11:41:42;7.70;;;7.30;;
15905;SDS011;8051;50.820;4.884;2022-08-01T11:44:10;7.77;;;7.27;;
15905;SDS011;8051;50.820;4.884;2022-08-01T11:46:45;7.63;;;7.20;;
15905;SDS011;8051;50.820;4.884;2022-08-01T11:49:23;8.20;;;7.70;;
15905;SDS011;8051;50.820;4.884;2022-08-01T11:52:10;8.87;;;8.27;;
15905;SDS011;8051;50.820;4.884;2022-08-01T11:54:39;7.50;;;7.10;;
15905;SDS011;8051;50.820;4.884;2022-08-01T11:57:10;8.63;;;8.03;;
15905;SDS011;8051;50.820;4.884;2022-08-01T11:59:39;8.30;;;7.70;;
15905;SDS011;8051;50.820;4.884;2022-08-01T12:02:20;8.30;;;7.90;;
15905;SDS011;8051;50.820;4.884;2022-08-01T12:04:52;9.33;;;8.73;;
15905;SDS011;8051;50.820;4.884;2022-08-01T12:07:21;9.17;;;8.37;;
15905;SDS011;8051;50.820;4.884;2022-08-01T12:09:48;10.00;;;9.43;;
15905;SDS011;8051;50.820;4.884;2022-08-01T12:12:25;9.50;;;8.87;;
15905;SDS011;8051;50.820;4.884;2022-08-01T12:14:53;9.27;;;8.80;;
15905;SDS011;8051;50.820;4.884;2022-08-01T12:17:27;8.97;;;8.57;;
15905;SDS011;8051;50.820;4.884;2022-08-01T12:19:55;9.30;;;8.80;;
15905;SDS011;8051;50.820;4.884;2022-08-01T12:22:23;8.97;;;8.27;;
15905;SDS011;8051;50.820;4.884;2022-08-01T12:24:51;9.80;;;9.20;;
15905;SDS011;8051;50.820;4.884;2022-08-01T12:27:26;8.43;;;8.03;;
15905;SDS011;8051;50.820;4.884;2022-08-01T12:29:54;8.60;;;8.20;;
15905;SDS011;8051;50.820;4.884;2022-08-01T12:32:26;8.07;;;7.57;;
15905;SDS011;8051;50.820;4.884;2022-08-01T12:34:55;8.80;;;8.17;;
15905;SDS011;8051;50.820;4.884;2022-08-01T12:37:26;8.13;;;7.50;;
15905;SDS011;8051;50.820;4.884;2022-08-01T12:39:53;8.30;;;7.67;;
15905;SDS011;8051;50.820;4.884;2022-08-01T12:42:21;9.37;;;8.57;;
15905;SDS011;8051;50.820;4.884;2022-08-01T12:44:50;7.63;;;7.23;;
15905;SDS011;8051;50.820;4.884;2022-08-01T12:47:18;7.70;;;7.30;;
15905;SDS011;8051;50.820;4.884;2022-08-01T12:49:46;8.23;;;7.73;;
15905;SDS011;8051;50.820;4.884;2022-08-01T12:52:14;8.07;;;7.67;;
15905;SDS011;8051;50.820;4.884;2022-08-01T12:55:06;7.93;;;7.60;;
15905;SDS011;8051;50.820;4.884;2022-08-01T12:57:35;9.83;;;9.33;;
15905;SDS011;8051;50.820;4.884;2022-08-01T13:00:12;9.57;;;8.93;;
15905;SDS011;8051;50.820;4.884;2022-08-01T13:02:41;8.93;;;8.43;;
15905;SDS011;8051;50.820;4.884;2022-08-01T13:05:09;8.37;;;7.67;;
15905;SDS011;8051;50.820;4.884;2022-08-01T13:07:38;8.00;;;7.50;;
15905;SDS011;8051;50.820;4.884;2022-08-01T13:10:07;8.53;;;8.03;;
15905;SDS011;8051;50.820;4.884;2022-08-01T13:12:35;8.20;;;7.40;;
15905;SDS011;8051;50.820;4.884;2022-08-01T13:15:20;7.30;;;6.90;;
15905;SDS011;8051;50.820;4.884;2022-08-01T13:17:49;7.83;;;7.37;;
15905;SDS011;8051;50.820;4.884;2022-08-01T13:20:24;8.27;;;7.50;;
15905;SDS011;8051;50.820;4.884;2022-08-01T13:22:55;7.50;;;7.10;;
15905;SDS011;8051;50.820;4.884;2022-08-01T13:25:45;8.30;;;7.83;;
15905;SDS011;8051;50.820;4.884;2022-08-01T13:28:13;8.00;;;7.60;;
15905;SDS011;8051;50.820;4.884;2022-08-01T13:30:50;9.13;;;8.07;;
15905;SDS011;8051;50.820;4.884;2022-08-01T13:33:20;8.50;;;8.10;;
15905;SDS011;8051;50.820;4.884;2022-08-01T13:35:49;8.13;;;7.70;;
15905;SDS011;8051;50.820;4.884;2022-08-01T13:38:17;8.20;;;7.70;;
15905;SDS011;8051;50.820;4.884;2022-08-01T13:40:43;8.13;;;7.40;;
15905;SDS011;8051;50.820;4.884;2022-08-01T13:43:11;8.03;;;7.63;;
15905;SDS011;8051;50.820;4.884;2022-08-01T13:45:37;7.73;;;7.33;;
15905;SDS011;8051;50.820;4.884;2022-08-01T13:48:07;7.63;;;7.30;;
15905;SDS011;8051;50.820;4.884;2022-08-01T13:50:34;8.53;;;8.00;;
15905;SDS011;8051;50.820;4.884;2022-08-01T13:53:01;10.60;;;7.70;;
15905;SDS011;8051;50.820;4.884;2022-08-01T13:55:29;8.80;;;8.37;;
15905;SDS011;8051;50.820;4.884;2022-08-01T13:57:55;9.00;;;8.53;;
15905;SDS011;8051;50.820;4.884;2022-08-01T14:00:22;8.50;;;8.20;;
15905;SDS011;8051;50.820;4.884;2022-08-01T14:02:49;8.10;;;7.70;;
15905;SDS011;8051;50.820;4.884;2022-08-01T14:05:17;8.13;;;7.67;;
15905;SDS011;8051;50.820;4.884;2022-08-01T14:07:44;8.03;;;7.63;;
15905;SDS011;8051;50.820;4.884;2022-08-01T14:10:12;8.97;;;8.57;;
15905;SDS011;8051;50.820;4.884;2022-08-01T14:12:39;8.20;;;7.80;;
15905;SDS011;8051;50.820;4.884;2022-08-01T14:15:06;9.03;;;8.53;;
15905;SDS011;8051;50.820;4.884;2022-08-01T14:17:34;9.47;;;8.70;;
15905;SDS011;8051;50.820;4.884;2022-08-01T14:20:01;8.93;;;8.43;;
15905;SDS011;8051;50.820;4.884;2022-08-01T14:22:31;9.77;;;9.27;;
15905;SDS011;8051;50.820;4.884;2022-08-01T14:24:58;7.90;;;7.57;;
15905;SDS011;8051;50.820;4.884;2022-08-01T14:27:25;8.80;;;8.40;;
15905;SDS011;8051;50.820;4.884;2022-08-01T14:29:55;8.07;;;7.70;;
15905;SDS011;8051;50.820;4.884;2022-08-01T14:32:22;8.17;;;7.63;;
15905;SDS011;8051;50.820;4.884;2022-08-01T14:34:48;8.20;;;7.80;;
15905;SDS011;8051;50.820;4.884;2022-08-01T14:37:15;8.53;;;8.13;;
15905;SDS011;8051;50.820;4.884;2022-08-01T14:39:43;7.97;;;7.57;;
15905;SDS011;8051;50.820;4.884;2022-08-01T14:42:10;9.20;;;8.70;;
15905;SDS011;8051;50.820;4.884;2022-08-01T14:44:37;8.23;;;7.73;;
15905;SDS011;8051;50.820;4.884;2022-08-01T14:47:04;8.53;;;8.13;;
15905;SDS011;8051;50.820;4.884;2022-08-01T14:49:31;8.90;;;8.27;;
15905;SDS011;8051;50.820;4.884;2022-08-01T14:51:58;7.87;;;7.47;;
15905;SDS011;8051;50.820;4.884;2022-08-01T14:54:25;8.20;;;7.80;;
15905;SDS011;8051;50.820;4.884;2022-08-01T14:56:53;9.47;;;8.97;;
15905;SDS011;8051;50.820;4.884;2022-08-01T14:59:20;8.60;;;8.10;;
15905;SDS011;8051;50.820;4.884;2022-08-01T15:01:47;9.90;;;9.50;;
15905;SDS011;8051;50.820;4.884;2022-08-01T15:04:13;9.23;;;8.53;;